Latest Coastal Weather Observations for Point Fawcett

IDD60701

Issued at 4:11 pm CST Tuesday 12 December 2017 (issued every 10 minutes, with the page automatically refreshed every 10 minutes)

About coastal observations | Map of coastal stations | Coastal observations for NT | Marine services | Other Formats
Station Details ID: 200731 Name: POINT FAWCETT Lat: -11.76 Lon: 130.03 Height: 6.5 m
Data from the previous 72 hours. | See also: Recent months at Point Fawcett
Date/Time
CST
Temp
°C
Wind Pressure Rain since
9am
mm
Weather Cloud Vis
km
Sea
Height
m
Swell
Dir  Spd
kts
Gust
kts
hPa Trend Height
m
Period
s
Dir
12/04:00pm 33.3 SW 8 12 1006.8 - 0.0 - - - - - - -
12/03:30pm 33.6 SW 9 13 1006.9 - 0.0 - - - - - - -
12/03:00pm 33.7 WSW 7 11 1007.1 - 0.0 - - - - - - -
12/02:30pm 34.2 SW 7 11 1007.5 - 0.0 - - - - - - -
12/02:00pm 33.5 WSW 7 11 1007.9 - 0.0 - - - - - - -
12/01:30pm 34.0 WSW 7 10 1008.4 - 0.0 - - - - - - -
12/01:00pm 33.8 W 7 9 1008.9 - 0.0 - - - - - - -
12/12:30pm 33.3 W 6 9 1009.4 - 0.0 - - - - - - -
12/12:00pm 32.5 W 7 9 1009.9 - 0.0 - - - - - - -
12/11:30am 32.8 W 6 8 1010.5 - 0.0 - - - - - - -
12/11:00am 31.9 W 5 7 1010.9 - 0.0 - - - - - - -
12/10:30am 32.5 W 6 8 1011.1 - 0.0 - - - - - - -
12/10:00am 32.6 W 5 7 1011.0 - 0.0 - - - - - - -
12/09:30am 32.1 W 7 9 1010.9 - 0.0 - - - - - - -
12/09:00am 31.5 W 6 7 1010.7 - 0.0 - - - - - - -
12/08:30am 31.0 W 6 8 1010.6 - 0.0 - - - - - - -
12/08:00am 30.3 W 7 8 1010.2 - 0.0 - - - - - - -
12/07:30am 29.9 W 8 11 1009.7 - 0.0 - - - - - - -
12/07:00am 29.3 WNW 7 9 1009.5 - 0.0 - - - - - - -
12/06:30am 28.9 WNW 6 8 1009.0 - 0.0 - - - - - - -
12/06:00am 28.9 NW 6 8 1008.7 - 0.0 - - - - - - -
12/05:30am 29.0 NW 6 8 1008.7 - 0.0 - - - - - - -
12/05:00am 29.2 NNW 6 8 1008.4 - 0.0 - - - - - - -
12/04:30am 29.3 NNW 6 9 1008.4 - 0.0 - - - - - - -
12/04:00am 29.4 NNW 6 8 1008.2 - 0.0 - - - - - - -
12/03:30am 29.6 NNW 7 9 1008.3 - 0.0 - - - - - - -
12/03:00am 29.8 NNW 9 11 1008.3 - 0.0 - - - - - - -
12/02:30am 29.9 NNW 9 11 1008.3 - 0.0 - - - - - - -
12/02:00am 29.8 NW 10 14 1008.3 - 0.0 - - - - - - -
12/01:30am 29.8 NNW 10 12 1008.9 - 0.0 - - - - - - -
12/01:00am 29.8 NW 9 12 1009.3 - 0.0 - - - - - - -
12/12:30am 30.0 WNW 8 11 1009.9 - 0.0 - - - - - - -
12/12:00am 29.9 WNW 9 11 1010.1 - 0.0 - - - - - - -
 
Date/Time
CST
Temp
°C
Wind Pressure Rain since
9am
mm
Weather Cloud Vis
km
Sea
Height
m
Swell
Dir  Spd
kts
Gust
kts
hPa Trend Height
m
Period
s
Dir
11/11:30pm 28.1 WNW 6 9 1010.6 - 0.0 - - - - - - -
11/11:00pm 27.7 WNW 3 5 1011.0 - 0.0 - - - - - - -
11/10:30pm 29.6 NW 6 8 1010.3 - 0.0 - - - - - - -
11/10:00pm 29.7 WNW 7 9 1009.8 - 0.0 - - - - - - -
11/09:30pm 28.2 W 5 8 1009.8 - 0.0 - - - - - - -
11/09:00pm 28.8 NW 6 7 1009.3 - 0.0 - - - - - - -
11/08:30pm 28.0 WNW 5 6 1009.3 - 0.0 - - - - - - -
11/08:00pm 27.8 W 3 5 1009.3 - 0.0 - - - - - - -
11/07:30pm 29.4 W 4 6 1009.3 - 0.0 - - - - - - -
11/07:00pm 30.3 W 5 7 1008.6 - 0.0 - - - - - - -
11/06:30pm 31.1 WNW 5 8 1008.1 - 0.0 - - - - - - -
11/06:00pm 31.7 W 5 7 1007.4 - 0.0 - - - - - - -
11/05:30pm 32.3 W 7 9 1007.3 - 0.0 - - - - - - -
11/05:00pm 32.7 WSW 6 8 1007.1 - 0.0 - - - - - - -
11/04:30pm 32.9 W 6 9 1007.4 - 0.0 - - - - - - -
11/04:00pm 33.3 WSW 6 8 1007.4 - 0.0 - - - - - - -
11/03:30pm 33.3 WSW 6 9 1007.6 - 0.0 - - - - - - -
11/03:00pm 33.3 WSW 6 8 1007.7 - 0.0 - - - - - - -
11/02:30pm 33.3 WSW 5 7 1008.0 - 0.0 - - - - - - -
11/02:00pm 33.5 WSW 5 7 1008.3 - 0.0 - - - - - - -
11/01:30pm 33.2 WSW 5 7 1008.7 - 0.0 - - - - - - -
11/01:00pm 32.4 W 5 7 1009.2 - 0.0 - - - - - - -
11/12:30pm 32.5 W 5 7 1009.6 - 0.0 - - - - - - -
11/12:00pm 31.4 WSW 4 6 1010.0 - 0.0 - - - - - - -
11/11:30am 32.4 WSW 4 6 1010.5 - 0.0 - - - - - - -
11/11:00am 32.4 WNW 5 6 1011.0 - 0.0 - - - - - - -
11/10:30am 31.8 WNW 4 5 1011.4 - 0.0 - - - - - - -
11/10:00am 31.9 W 4 5 1011.5 - 0.0 - - - - - - -
11/09:30am 31.1 W 3 5 1011.8 - 0.0 - - - - - - -
11/09:00am 31.2 W 3 5 1011.7 - 0.4 - - - - - - -
11/08:30am 30.4 NW 4 5 1011.4 - 0.4 - - - - - - -
11/08:00am 29.8 NW 4 5 1011.1 - 0.4 - - - - - - -
11/07:30am 29.5 N 4 6 1010.9 - 0.4 - - - - - - -
11/07:00am 28.8 NNW 5 8 1010.4 - 0.4 - - - - - - -
11/06:30am 28.7 N 6 8 1010.0 - 0.4 - - - - - - -
11/06:00am 28.7 NNW 7 9 1009.5 - 0.4 - - - - - - -
11/05:30am 28.7 N 7 9 1009.4 - 0.4 - - - - - - -
11/05:00am 28.8 N 8 11 1009.1 - 0.4 - - - - - - -
11/04:30am 28.7 N 8 11 1009.0 - 0.4 - - - - - - -
11/04:00am 28.7 NNW 7 10 1008.9 - 0.4 - - - - - - -
11/03:30am 28.8 N 6 9 1008.9 - 0.4 - - - - - - -
11/03:00am 28.7 N 7 10 1008.8 - 0.4 - - - - - - -
11/02:30am 28.9 N 7 11 1009.2 - 0.4 - - - - - - -
11/02:00am 28.9 N 8 10 1009.5 - 0.4 - - - - - - -
11/01:30am 29.0 N 7 11 1009.7 - 0.4 - - - - - - -
11/01:00am 29.0 N 8 11 1009.9 - 0.4 - - - - - - -
11/12:30am 29.0 N 8 12 1010.2 - 0.4 - - - - - - -
11/12:00am 28.9 N 8 11 1010.2 - 0.4 - - - - - - -
 
Date/Time
CST
Temp
°C
Wind Pressure Rain since
9am
mm
Weather Cloud Vis
km
Sea
Height
m
Swell
Dir  Spd
kts
Gust
kts
hPa Trend Height
m
Period
s
Dir
10/11:30pm 28.7 N 7 10 1010.3 - 0.4 - - - - - - -
10/11:00pm 27.9 NNE 7 10 1010.2 - 0.4 - - - - - - -
10/10:30pm 25.6 ENE 4 5 1010.4 - 0.4 - - - - - - -
10/10:00pm 26.1 ENE 4 5 1010.3 - 0.4 - - - - - - -
10/09:30pm 26.5 ENE 4 5 1010.1 - 0.4 - - - - - - -
10/09:00pm 27.5 ENE 3 4 1010.0 - 0.4 - - - - - - -
10/08:30pm 28.1 N 5 7 1009.7 - 0.4 - - - - - - -
10/08:00pm 28.2 N 4 6 1009.3 - 0.4 - - - - - - -
10/07:30pm 27.9 NNW 4 6 1008.7 - 0.4 - - - - - - -
10/07:00pm 27.9 N 1 3 1008.6 - 0.4 - - - - - - -
10/06:30pm 27.7 ENE 3 4 1008.6 - 0.4 - - - - - - -
10/06:00pm 27.3 ENE 5 7 1008.1 - 0.4 - - - - - - -
10/05:30pm 27.4 NE 6 8 1008.5 - 0.4 - - - - - - -
10/05:00pm 27.5 NE 4 6 1007.7 - 0.4 - - - - - - -
10/04:30pm 26.3 ENE 7 15 1007.5 - 0.4 - - - - - - -
10/04:07pm 29.4 ENE 15 29 1008.6 - 0.0 - - - - - - -
10/04:00pm 32.4 S 6 11 1007.4 - 0.0 - - - - - - -
10/03:30pm 31.4 SSE 5 8 1007.7 - 0.0 - - - - - - -
10/03:00pm 31.7 SSW 6 9 1007.8 - 0.0 - - - - - - -
10/02:30pm 31.7 SSW 4 8 1008.1 - 0.0 - - - - - - -
10/02:00pm 31.9 SW 6 11 1008.2 - 0.0 - - - - - - -
10/01:30pm 32.0 SW 7 8 1008.5 - 0.0 - - - - - - -
10/01:00pm 31.5 WSW 6 8 1008.9 - 0.0 - - - - - - -
10/12:30pm 32.2 W 6 8 1009.3 - 0.0 - - - - - - -
10/12:00pm 32.8 WNW 6 8 1009.7 - 0.0 - - - - - - -
10/11:30am 32.2 WSW 6 8 1009.9 - 0.0 - - - - - - -
10/11:00am 31.6 WNW 6 9 1010.2 - 0.0 - - - - - - -
10/10:30am 30.9 W 5 7 1010.6 - 0.0 - - - - - - -
10/10:00am 30.8 W 5 6 1010.8 - 0.0 - - - - - - -
10/09:30am 31.7 E 4 5 1010.5 - 0.0 - - - - - - -
10/09:00am 31.1 SE 3 5 1010.3 - 2.6 - - - - - - -
10/08:30am 29.6 CALM 0 3 1010.2 - 2.6 - - - - - - -
10/08:00am 28.1 E 2 4 1010.1 - 2.6 - - - - - - -
10/07:30am 26.7 ESE 3 4 1009.9 - 2.6 - - - - - - -
10/07:00am 25.2 ESE 4 5 1009.5 - 2.6 - - - - - - -
10/06:30am 24.3 ESE 4 5 1008.8 - 2.6 - - - - - - -
10/06:00am 24.3 ESE 4 4 1008.4 - 2.6 - - - - - - -
10/05:30am 24.5 SE 4 5 1008.1 - 2.6 - - - - - - -
10/05:00am 24.7 NNE 1 4 1007.8 - 2.6 - - - - - - -
10/04:30am 24.9 CALM 0 0 1007.6 - 2.6 - - - - - - -
10/04:00am 25.4 CALM 0 0 1007.8 - 2.6 - - - - - - -
10/03:30am 26.2 N 1 3 1007.7 - 2.6 - - - - - - -
10/03:00am 27.7 NNW 4 6 1007.5 - 2.6 - - - - - - -
10/02:30am 28.3 N 5 7 1007.9 - 2.6 - - - - - - -
10/02:00am 28.4 N 5 8 1008.1 - 2.6 - - - - - - -
10/01:30am 28.4 N 5 7 1008.5 - 2.6 - - - - - - -
10/01:00am 28.4 N 6 8 1008.6 - 2.6 - - - - - - -
10/12:30am 28.5 N 6 7 1009.1 - 2.6 - - - - - - -
10/12:00am 28.5 N 5 7 1009.3 - 2.6 - - - - - - -
 
Date/Time
CST
Temp
°C
Wind Pressure Rain since
9am
mm
Weather Cloud Vis
km
Sea
Height
m
Swell
Dir  Spd
kts
Gust
kts
hPa Trend Height
m
Period
s
Dir
09/11:30pm 28.6 N 5 7 1009.7 - 2.6 - - - - - - -
09/11:00pm 28.7 N 6 8 1009.5 - 2.6 - - - - - - -
09/10:30pm 28.8 N 7 9 1009.5 - 2.6 - - - - - - -
09/10:00pm 28.8 N 7 9 1009.2 - 2.6 - - - - - - -
09/09:30pm 28.5 N 6 8 1009.2 - 2.6 - - - - - - -
09/09:00pm 28.4 N 6 8 1008.8 - 2.6 - - - - - - -
09/08:30pm 27.8 N 4 7 1008.7 - 2.6 - - - - - - -
09/08:00pm 27.9 NE 4 6 1008.4 - 2.6 - - - - - - -
09/07:30pm 28.1 NE 6 8 1007.6 - 2.6 - - - - - - -
09/07:00pm 28.6 NNE 6 9 1007.4 - 2.6 - - - - - - -
09/06:30pm 29.0 NNE 6 9 1007.3 - 2.6 - - - - - - -
09/06:00pm 29.7 NNE 7 9 1007.0 - 2.6 - - - - - - -
09/05:30pm 30.0 N 7 10 1007.0 - 2.6 - - - - - - -
09/05:00pm 29.9 NNE 5 7 1006.8 - 2.6 - - - - - - -
09/04:30pm 30.0 NNE 5 8 1007.0 - 2.6 - - - - - - -

Other Formats:

Comma delimited format used in spreadsheet applications
http://www.bom.gov.au/fwo/IDD60701/IDD60701.94122.axf

JavaScript Object Notation format (JSON) in row-major order
http://www.bom.gov.au/fwo/IDD60701/IDD60701.94122.json